ARG2436 LIBD-LIML
Flight info
| Callsign | ARG2436 |
|---|---|
| Flight time | 1h 26m |
| Altitude | 18000 |
| Route | TOPNO L995 DOGUS/N0456F380 DCT LOMED DCT RUXOL/N0392F180 Q920 KALIK |
| Aircraft | B737/M-SDE2E3FGHIRWXY/LB1 |
Departure
| Time | 2026-04-22 17:41 |
|---|---|
| Airport | Bari Karol Wojtyła International Airport (LIBD) |
Arrival
| Time | 2026-04-22 19:07 |
|---|---|
| Airport | Milano Linate Airport (LIML) |
| Time | Latitude | Longitude | Altitude | Speed | Heading |
|---|---|---|---|---|---|
| 2026-04-22 14:49 | 41.13538 | 16.76403 | 135 ft | 0 kts | 159° |
| 2026-04-22 17:30 | 41.13540 | 16.76402 | 135 ft | 2 kts | 159° |
| 2026-04-22 17:30 | 41.13564 | 16.76389 | 135 ft | 4 kts | 154° |
| 2026-04-22 17:30 | 41.13587 | 16.76371 | 135 ft | 4 kts | 141° |
| 2026-04-22 17:30 | 41.13602 | 16.76346 | 135 ft | 4 kts | 86° |
| 2026-04-22 17:31 | 41.13601 | 16.76337 | 135 ft | 1 kts | 68° |
| 2026-04-22 17:32 | 41.13604 | 16.76347 | 135 ft | 4 kts | 68° |
| 2026-04-22 17:32 | 41.13617 | 16.76390 | 135 ft | 6 kts | 68° |
| 2026-04-22 17:33 | 41.13629 | 16.76430 | 135 ft | 8 kts | 68° |
| 2026-04-22 17:33 | 41.13688 | 16.76537 | 135 ft | 13 kts | 30° |
| 2026-04-22 17:33 | 41.13777 | 16.76552 | 135 ft | 13 kts | 9° |
| 2026-04-22 17:33 | 41.13834 | 16.76655 | 132 ft | 16 kts | 70° |
| 2026-04-22 17:34 | 41.13878 | 16.76815 | 125 ft | 21 kts | 70° |
| 2026-04-22 17:34 | 41.13929 | 16.76995 | 124 ft | 21 kts | 70° |
| 2026-04-22 17:34 | 41.13982 | 16.77185 | 123 ft | 22 kts | 70° |
| 2026-04-22 17:34 | 41.14040 | 16.77363 | 121 ft | 14 kts | 48° |
| 2026-04-22 17:35 | 41.14050 | 16.77373 | 120 ft | 0 kts | 37° |
| 2026-04-22 17:37 | 41.14051 | 16.77374 | 120 ft | 1 kts | 37° |
| 2026-04-22 17:37 | 41.14072 | 16.77391 | 119 ft | 5 kts | 27° |
| 2026-04-22 17:38 | 41.14106 | 16.77407 | 117 ft | 5 kts | 15° |
| 2026-04-22 17:38 | 41.14123 | 16.77412 | 118 ft | 0 kts | 13° |
| 2026-04-22 17:38 | 41.14137 | 16.77417 | 118 ft | 4 kts | 13° |
| 2026-04-22 17:39 | 41.14193 | 16.77415 | 114 ft | 11 kts | 333° |
| 2026-04-22 17:39 | 41.14211 | 16.77335 | 113 ft | 0 kts | 253° |
| 2026-04-22 17:40 | 41.14152 | 16.77124 | 119 ft | 61 kts | 249° |
| 2026-04-22 17:40 | 41.13908 | 16.76262 | 124 ft | 135 kts | 249° |
| 2026-04-22 17:40 | 41.13527 | 16.74880 | 441 ft | 170 kts | 250° |
| 2026-04-22 17:41 | 41.13098 | 16.73428 | 1444 ft | 163 kts | 249° |
| 2026-04-22 17:41 | 41.12696 | 16.72075 | 2436 ft | 157 kts | 251° |
| 2026-04-22 17:41 | 41.12287 | 16.70594 | 2831 ft | 193 kts | 254° |
| 2026-04-22 17:41 | 41.11783 | 16.68716 | 2913 ft | 239 kts | 253° |
| 2026-04-22 17:42 | 41.11165 | 16.66543 | 3474 ft | 259 kts | 252° |
| 2026-04-22 17:42 | 41.10519 | 16.64289 | 4429 ft | 263 kts | 252° |
| 2026-04-22 17:42 | 41.10079 | 16.62752 | 5121 ft | 265 kts | 252° |
| 2026-04-22 17:42 | 41.09208 | 16.59699 | 6434 ft | 269 kts | 251° |
| 2026-04-22 17:43 | 41.08540 | 16.57358 | 7375 ft | 274 kts | 251° |
| 2026-04-22 17:43 | 41.07863 | 16.54985 | 8297 ft | 277 kts | 251° |
| 2026-04-22 17:43 | 41.07174 | 16.52573 | 9212 ft | 281 kts | 251° |
| 2026-04-22 17:43 | 41.06479 | 16.50145 | 10115 ft | 283 kts | 251° |
| 2026-04-22 17:44 | 41.05770 | 16.47655 | 10698 ft | 299 kts | 252° |
| 2026-04-22 17:44 | 41.05007 | 16.44964 | 10918 ft | 325 kts | 252° |
| 2026-04-22 17:44 | 41.04181 | 16.42055 | 11122 ft | 349 kts | 252° |
| 2026-04-22 17:44 | 41.03302 | 16.38972 | 11451 ft | 365 kts | 252° |
| 2026-04-22 17:45 | 41.02393 | 16.35804 | 12145 ft | 369 kts | 252° |
| 2026-04-22 17:45 | 41.01494 | 16.32675 | 13025 ft | 367 kts | 252° |
| 2026-04-22 17:45 | 41.00586 | 16.29516 | 13831 ft | 368 kts | 252° |
| 2026-04-22 17:45 | 40.99673 | 16.26337 | 14613 ft | 370 kts | 252° |
| 2026-04-22 17:46 | 40.98759 | 16.23154 | 15393 ft | 371 kts | 253° |
| 2026-04-22 17:46 | 40.97838 | 16.19950 | 16154 ft | 373 kts | 253° |
| 2026-04-22 17:46 | 40.96909 | 16.16726 | 16892 ft | 375 kts | 253° |
| 2026-04-22 17:46 | 40.95996 | 16.13488 | 17581 ft | 375 kts | 256° |
| 2026-04-22 17:47 | 40.95565 | 16.10145 | 18287 ft | 371 kts | 270° |
| 2026-04-22 17:47 | 40.95787 | 16.06755 | 18937 ft | 371 kts | 281° |
| 2026-04-22 17:47 | 40.96339 | 16.03431 | 19555 ft | 373 kts | 283° |
| 2026-04-22 17:47 | 40.96939 | 16.00092 | 20182 ft | 374 kts | 284° |
| 2026-04-22 17:48 | 40.97347 | 15.97822 | 20600 ft | 375 kts | 284° |
| 2026-04-22 17:48 | 40.98132 | 15.93363 | 21375 ft | 377 kts | 284° |
| 2026-04-22 17:48 | 40.98713 | 15.89976 | 21912 ft | 378 kts | 284° |
| 2026-04-22 17:48 | 40.99288 | 15.86570 | 22430 ft | 380 kts | 283° |
| 2026-04-22 17:49 | 40.99861 | 15.83151 | 22925 ft | 381 kts | 283° |
| 2026-04-22 17:49 | 41.00435 | 15.79712 | 23386 ft | 383 kts | 284° |
| 2026-04-22 17:49 | 41.00816 | 15.77427 | 23695 ft | 384 kts | 284° |
| 2026-04-22 17:49 | 41.01932 | 15.72951 | 24315 ft | 384 kts | 294° |
| 2026-04-22 17:50 | 41.02707 | 15.70840 | 24624 ft | 385 kts | 296° |
| 2026-04-22 17:50 | 41.04043 | 15.67749 | 25001 ft | 388 kts | 301° |
| 2026-04-22 17:50 | 41.05666 | 15.64878 | 25364 ft | 392 kts | 308° |
| 2026-04-22 17:50 | 41.07496 | 15.62188 | 25760 ft | 394 kts | 309° |
| 2026-04-22 17:51 | 41.09363 | 15.59504 | 26120 ft | 396 kts | 309° |
| 2026-04-22 17:51 | 41.11233 | 15.56828 | 26481 ft | 396 kts | 309° |
| 2026-04-22 17:51 | 41.13113 | 15.54132 | 26781 ft | 398 kts | 309° |
| 2026-04-22 17:51 | 41.14993 | 15.51425 | 27115 ft | 398 kts | 309° |
| 2026-04-22 17:52 | 41.16862 | 15.48725 | 27481 ft | 397 kts | 309° |
| 2026-04-22 17:52 | 41.18723 | 15.46026 | 27895 ft | 395 kts | 309° |
| 2026-04-22 17:52 | 41.20569 | 15.43342 | 28355 ft | 392 kts | 309° |
| 2026-04-22 17:52 | 41.22406 | 15.40667 | 28797 ft | 390 kts | 309° |
| 2026-04-22 17:53 | 41.24221 | 15.38020 | 29245 ft | 387 kts | 309° |
| 2026-04-22 17:53 | 41.26031 | 15.35376 | 29665 ft | 385 kts | 309° |
| 2026-04-22 17:53 | 41.27826 | 15.32751 | 30075 ft | 383 kts | 309° |
| 2026-04-22 17:53 | 41.29612 | 15.30137 | 30511 ft | 381 kts | 309° |
| 2026-04-22 17:54 | 41.31390 | 15.27531 | 30860 ft | 381 kts | 309° |
| 2026-04-22 17:54 | 41.33147 | 15.24955 | 31185 ft | 380 kts | 309° |
| 2026-04-22 17:54 | 41.34924 | 15.22345 | 31528 ft | 380 kts | 309° |
| 2026-04-22 17:54 | 41.36692 | 15.19747 | 31862 ft | 378 kts | 309° |
| 2026-04-22 17:55 | 41.38456 | 15.17154 | 32164 ft | 378 kts | 309° |
| 2026-04-22 17:55 | 41.40220 | 15.14559 | 32452 ft | 378 kts | 309° |
| 2026-04-22 17:55 | 41.41979 | 15.11968 | 32706 ft | 377 kts | 309° |
| 2026-04-22 17:55 | 41.43738 | 15.09373 | 33023 ft | 376 kts | 309° |
| 2026-04-22 17:56 | 41.45491 | 15.06787 | 33333 ft | 375 kts | 309° |
| 2026-04-22 17:56 | 41.47239 | 15.04206 | 33630 ft | 374 kts | 309° |
| 2026-04-22 17:56 | 41.48981 | 15.01632 | 33906 ft | 374 kts | 309° |
| 2026-04-22 17:56 | 41.50724 | 14.99054 | 34177 ft | 373 kts | 309° |
| 2026-04-22 17:57 | 41.52465 | 14.96477 | 34407 ft | 374 kts | 309° |
| 2026-04-22 17:57 | 41.54210 | 14.93890 | 34585 ft | 376 kts | 309° |
| 2026-04-22 17:57 | 41.55962 | 14.91290 | 34760 ft | 377 kts | 309° |
| 2026-04-22 17:57 | 41.57716 | 14.88687 | 34973 ft | 377 kts | 309° |
| 2026-04-22 17:58 | 41.59470 | 14.86082 | 35183 ft | 377 kts | 309° |
| 2026-04-22 17:58 | 41.61227 | 14.83469 | 35337 ft | 379 kts | 309° |
| 2026-04-22 17:58 | 41.62991 | 14.80843 | 35535 ft | 380 kts | 309° |
| 2026-04-22 17:58 | 41.64762 | 14.78205 | 35727 ft | 381 kts | 309° |
| 2026-04-22 17:59 | 41.66508 | 14.75602 | 35929 ft | 381 kts | 309° |
| 2026-04-22 17:59 | 41.68280 | 14.72957 | 36115 ft | 381 kts | 309° |
| 2026-04-22 17:59 | 41.70049 | 14.70315 | 36294 ft | 382 kts | 309° |
| 2026-04-22 17:59 | 41.71825 | 14.67659 | 36461 ft | 383 kts | 309° |
| 2026-04-22 18:00 | 41.73026 | 14.65864 | 36566 ft | 384 kts | 309° |
| 2026-04-22 18:00 | 41.75382 | 14.62336 | 36826 ft | 383 kts | 309° |
| 2026-04-22 18:00 | 41.77153 | 14.59684 | 37113 ft | 380 kts | 309° |
| 2026-04-22 18:00 | 41.78911 | 14.57047 | 37270 ft | 380 kts | 309° |
| 2026-04-22 18:01 | 41.80677 | 14.54394 | 37326 ft | 383 kts | 309° |
| 2026-04-22 18:01 | 41.82450 | 14.51728 | 37484 ft | 381 kts | 308° |
| 2026-04-22 18:01 | 41.84214 | 14.49074 | 37675 ft | 380 kts | 308° |
| 2026-04-22 18:02 | 41.87731 | 14.43776 | 37819 ft | 384 kts | 308° |
| 2026-04-22 18:02 | 41.89511 | 14.41093 | 37923 ft | 385 kts | 309° |
| 2026-04-22 18:02 | 41.91289 | 14.38407 | 38032 ft | 386 kts | 309° |
| 2026-04-22 18:03 | 41.94881 | 14.32977 | 38114 ft | 390 kts | 309° |
| 2026-04-22 18:03 | 41.98469 | 14.27548 | 38133 ft | 387 kts | 309° |
| 2026-04-22 18:04 | 42.02026 | 14.22146 | 38140 ft | 386 kts | 309° |
| 2026-04-22 18:04 | 42.05588 | 14.16728 | 38111 ft | 385 kts | 309° |
| 2026-04-22 18:05 | 42.09106 | 14.11372 | 38141 ft | 384 kts | 309° |
| 2026-04-22 18:05 | 42.12494 | 14.06203 | 38148 ft | 385 kts | 309° |
| 2026-04-22 18:06 | 42.16043 | 14.00776 | 38122 ft | 386 kts | 309° |
| 2026-04-22 18:06 | 42.19593 | 13.95346 | 38148 ft | 386 kts | 309° |
| 2026-04-22 18:07 | 42.23142 | 13.89901 | 38137 ft | 386 kts | 309° |
| 2026-04-22 18:07 | 42.26688 | 13.84448 | 38132 ft | 386 kts | 309° |
| 2026-04-22 18:08 | 42.30239 | 13.78983 | 38138 ft | 387 kts | 309° |
| 2026-04-22 18:08 | 42.33796 | 13.73497 | 38117 ft | 388 kts | 309° |
| 2026-04-22 18:09 | 42.37325 | 13.68039 | 38133 ft | 388 kts | 309° |
| 2026-04-22 18:09 | 42.40881 | 13.62533 | 38118 ft | 389 kts | 309° |
| 2026-04-22 18:10 | 42.44443 | 13.57010 | 38123 ft | 390 kts | 309° |
| 2026-04-22 18:10 | 42.48003 | 13.51475 | 38132 ft | 390 kts | 309° |
| 2026-04-22 18:11 | 42.51573 | 13.45917 | 38118 ft | 391 kts | 309° |
| 2026-04-22 18:11 | 42.55147 | 13.40341 | 38112 ft | 392 kts | 309° |
| 2026-04-22 18:12 | 42.58728 | 13.34744 | 38113 ft | 393 kts | 309° |
| 2026-04-22 18:12 | 42.61708 | 13.30078 | 38114 ft | 394 kts | 309° |
| 2026-04-22 18:13 | 42.65907 | 13.23489 | 38117 ft | 395 kts | 309° |
| 2026-04-22 18:13 | 42.69498 | 13.17843 | 38105 ft | 395 kts | 309° |
| 2026-04-22 18:14 | 42.73094 | 13.12180 | 38108 ft | 396 kts | 309° |
| 2026-04-22 18:14 | 42.76688 | 13.06506 | 38110 ft | 395 kts | 309° |
| 2026-04-22 18:15 | 42.80257 | 13.00865 | 38104 ft | 395 kts | 309° |
| 2026-04-22 18:15 | 42.83841 | 12.95184 | 38116 ft | 395 kts | 309° |
| 2026-04-22 18:16 | 42.87426 | 12.89494 | 38104 ft | 396 kts | 309° |
| 2026-04-22 18:16 | 42.91013 | 12.83790 | 38111 ft | 396 kts | 309° |
| 2026-04-22 18:17 | 42.94598 | 12.78077 | 38112 ft | 396 kts | 309° |
| 2026-04-22 18:17 | 42.98178 | 12.72362 | 38126 ft | 396 kts | 309° |
| 2026-04-22 18:18 | 43.01764 | 12.66624 | 38125 ft | 397 kts | 309° |
| 2026-04-22 18:18 | 43.05346 | 12.60880 | 38132 ft | 397 kts | 309° |
| 2026-04-22 18:19 | 43.08930 | 12.55124 | 38129 ft | 398 kts | 309° |
| 2026-04-22 18:19 | 43.12516 | 12.49353 | 38128 ft | 398 kts | 309° |
| 2026-04-22 18:20 | 43.16103 | 12.43568 | 38127 ft | 398 kts | 309° |
| 2026-04-22 18:20 | 43.19665 | 12.37814 | 38130 ft | 399 kts | 309° |
| 2026-04-22 18:21 | 43.23256 | 12.32000 | 38148 ft | 399 kts | 309° |
| 2026-04-22 18:21 | 43.26840 | 12.26184 | 38142 ft | 400 kts | 309° |
| 2026-04-22 18:22 | 43.30435 | 12.20342 | 38129 ft | 401 kts | 309° |
| 2026-04-22 18:22 | 43.34029 | 12.14488 | 38142 ft | 401 kts | 309° |
| 2026-04-22 18:23 | 43.37623 | 12.08622 | 38144 ft | 402 kts | 309° |
| 2026-04-22 18:23 | 43.41221 | 12.02738 | 38139 ft | 402 kts | 309° |
| 2026-04-22 18:24 | 43.46625 | 11.93880 | 38144 ft | 403 kts | 309° |
| 2026-04-22 18:25 | 43.52027 | 11.84995 | 38129 ft | 403 kts | 309° |
| 2026-04-22 18:25 | 43.55629 | 11.79056 | 38127 ft | 403 kts | 309° |
| 2026-04-22 18:26 | 43.60993 | 11.70188 | 38134 ft | 403 kts | 309° |
| 2026-04-22 18:26 | 43.64575 | 11.64252 | 38131 ft | 403 kts | 309° |
| 2026-04-22 18:27 | 43.68160 | 11.58301 | 38127 ft | 403 kts | 309° |
| 2026-04-22 18:27 | 43.71738 | 11.52348 | 38142 ft | 403 kts | 309° |
| 2026-04-22 18:28 | 43.75315 | 11.46382 | 38124 ft | 403 kts | 309° |
| 2026-04-22 18:28 | 43.78897 | 11.40397 | 38129 ft | 403 kts | 309° |
| 2026-04-22 18:29 | 43.82464 | 11.34425 | 38122 ft | 402 kts | 309° |
| 2026-04-22 18:29 | 43.86024 | 11.28451 | 38123 ft | 402 kts | 309° |
| 2026-04-22 18:30 | 43.91345 | 11.19500 | 38130 ft | 401 kts | 309° |
| 2026-04-22 18:31 | 43.94888 | 11.13522 | 38129 ft | 401 kts | 309° |
| 2026-04-22 18:31 | 43.98422 | 11.07552 | 38133 ft | 400 kts | 309° |
| 2026-04-22 18:32 | 44.01279 | 11.02512 | 38141 ft | 400 kts | 304° |
| 2026-04-22 18:32 | 44.04046 | 10.94382 | 38148 ft | 404 kts | 290° |
| 2026-04-22 18:33 | 44.05601 | 10.87042 | 38139 ft | 406 kts | 289° |
| 2026-04-22 18:33 | 44.06392 | 10.83270 | 38133 ft | 407 kts | 289° |
| 2026-04-22 18:34 | 44.10308 | 10.64907 | 38125 ft | 408 kts | 289° |
| 2026-04-22 18:35 | 44.12330 | 10.57593 | 38151 ft | 402 kts | 300° |
| 2026-04-22 18:35 | 44.15374 | 10.51093 | 38122 ft | 400 kts | 305° |
| 2026-04-22 18:36 | 44.18486 | 10.44671 | 37567 ft | 400 kts | 305° |
| 2026-04-22 18:36 | 44.20021 | 10.41476 | 36977 ft | 396 kts | 305° |
| 2026-04-22 18:36 | 44.21544 | 10.38295 | 36384 ft | 391 kts | 304° |
| 2026-04-22 18:36 | 44.23040 | 10.35157 | 35554 ft | 392 kts | 304° |
| 2026-04-22 18:37 | 44.24544 | 10.31998 | 34775 ft | 391 kts | 304° |
| 2026-04-22 18:37 | 44.26048 | 10.28833 | 34015 ft | 388 kts | 304° |
| 2026-04-22 18:37 | 44.27030 | 10.26764 | 33528 ft | 385 kts | 304° |
| 2026-04-22 18:37 | 44.29009 | 10.22591 | 32280 ft | 386 kts | 304° |
| 2026-04-22 18:38 | 44.30491 | 10.19466 | 31352 ft | 386 kts | 304° |
| 2026-04-22 18:38 | 44.31969 | 10.16338 | 30436 ft | 386 kts | 304° |
| 2026-04-22 18:38 | 44.33450 | 10.13205 | 29448 ft | 386 kts | 303° |
| 2026-04-22 18:39 | 44.36404 | 10.06945 | 27391 ft | 386 kts | 303° |
| 2026-04-22 18:39 | 44.37858 | 10.03858 | 26380 ft | 385 kts | 303° |
| 2026-04-22 18:39 | 44.39295 | 10.00806 | 25476 ft | 383 kts | 304° |
| 2026-04-22 18:39 | 44.40748 | 9.97713 | 24625 ft | 379 kts | 304° |
| 2026-04-22 18:40 | 44.42185 | 9.94652 | 23819 ft | 374 kts | 304° |
| 2026-04-22 18:40 | 44.43611 | 9.91616 | 23007 ft | 371 kts | 304° |
| 2026-04-22 18:40 | 44.45026 | 9.88595 | 22202 ft | 370 kts | 304° |
| 2026-04-22 18:40 | 44.46434 | 9.85587 | 21430 ft | 370 kts | 304° |
| 2026-04-22 18:41 | 44.47892 | 9.82537 | 20602 ft | 386 kts | 306° |
| 2026-04-22 18:41 | 44.49453 | 9.79405 | 19709 ft | 393 kts | 306° |
| 2026-04-22 18:41 | 44.51027 | 9.76289 | 18832 ft | 389 kts | 307° |
| 2026-04-22 18:41 | 44.52585 | 9.73202 | 17975 ft | 386 kts | 307° |
| 2026-04-22 18:42 | 44.54124 | 9.70142 | 17126 ft | 383 kts | 307° |
| 2026-04-22 18:42 | 44.55649 | 9.67092 | 16281 ft | 380 kts | 307° |
| 2026-04-22 18:42 | 44.57161 | 9.64060 | 15567 ft | 375 kts | 307° |
| 2026-04-22 18:42 | 44.58613 | 9.61139 | 15369 ft | 357 kts | 307° |
| 2026-04-22 18:43 | 44.59984 | 9.58378 | 15211 ft | 341 kts | 307° |
| 2026-04-22 18:43 | 44.61306 | 9.55714 | 15071 ft | 325 kts | 307° |
| 2026-04-22 18:43 | 44.62573 | 9.53161 | 14918 ft | 312 kts | 307° |
| 2026-04-22 18:43 | 44.63790 | 9.50703 | 14782 ft | 301 kts | 307° |
| 2026-04-22 18:44 | 44.64963 | 9.48337 | 14632 ft | 291 kts | 307° |
| 2026-04-22 18:44 | 44.66115 | 9.46009 | 14225 ft | 289 kts | 307° |
| 2026-04-22 18:44 | 44.67255 | 9.43702 | 13842 ft | 285 kts | 307° |
| 2026-04-22 18:44 | 44.68382 | 9.41416 | 13455 ft | 283 kts | 307° |
| 2026-04-22 18:45 | 44.69482 | 9.39181 | 13337 ft | 273 kts | 307° |
| 2026-04-22 18:45 | 44.70599 | 9.37090 | 13177 ft | 262 kts | 319° |
| 2026-04-22 18:45 | 44.72090 | 9.35755 | 13064 ft | 249 kts | 339° |
| 2026-04-22 18:45 | 44.73775 | 9.35210 | 12970 ft | 249 kts | 354° |
| 2026-04-22 18:46 | 44.75531 | 9.35022 | 12834 ft | 257 kts | 356° |
| 2026-04-22 18:46 | 44.77312 | 9.34874 | 12739 ft | 262 kts | 356° |
| 2026-04-22 18:46 | 44.79130 | 9.34740 | 12604 ft | 262 kts | 1° |
| 2026-04-22 18:46 | 44.80888 | 9.35384 | 12462 ft | 264 kts | 26° |
| 2026-04-22 18:47 | 44.82293 | 9.37033 | 12353 ft | 267 kts | 49° |
| 2026-04-22 18:47 | 44.83143 | 9.39373 | 12223 ft | 272 kts | 72° |
| 2026-04-22 18:47 | 44.83388 | 9.42023 | 12118 ft | 273 kts | 82° |
| 2026-04-22 18:47 | 44.83514 | 9.44697 | 11986 ft | 274 kts | 83° |
| 2026-04-22 18:48 | 44.83646 | 9.47375 | 11855 ft | 273 kts | 79° |
| 2026-04-22 18:48 | 44.84251 | 9.49852 | 11709 ft | 265 kts | 56° |
| 2026-04-22 18:48 | 44.85205 | 9.52060 | 11611 ft | 263 kts | 56° |
| 2026-04-22 18:48 | 44.86165 | 9.54254 | 11484 ft | 262 kts | 51° |
| 2026-04-22 18:49 | 44.87537 | 9.55803 | 11212 ft | 258 kts | 19° |
| 2026-04-22 18:49 | 44.89292 | 9.56101 | 10960 ft | 255 kts | 353° |
| 2026-04-22 18:49 | 44.90979 | 9.55368 | 10711 ft | 254 kts | 335° |
| 2026-04-22 18:49 | 44.92548 | 9.54198 | 10446 ft | 256 kts | 332° |
| 2026-04-22 18:50 | 44.94105 | 9.52948 | 10196 ft | 258 kts | 332° |
| 2026-04-22 18:50 | 44.95666 | 9.51683 | 9937 ft | 259 kts | 332° |
| 2026-04-22 18:50 | 44.97230 | 9.50421 | 9689 ft | 259 kts | 332° |
| 2026-04-22 18:50 | 44.98793 | 9.49169 | 9438 ft | 259 kts | 332° |
| 2026-04-22 18:51 | 45.00364 | 9.47914 | 9185 ft | 259 kts | 332° |
| 2026-04-22 18:51 | 45.01934 | 9.46666 | 8935 ft | 259 kts | 332° |
| 2026-04-22 18:51 | 45.03488 | 9.45431 | 8688 ft | 260 kts | 332° |
| 2026-04-22 18:51 | 45.05082 | 9.44167 | 8435 ft | 259 kts | 332° |
| 2026-04-22 18:52 | 45.06632 | 9.42940 | 8189 ft | 259 kts | 332° |
| 2026-04-22 18:52 | 45.08202 | 9.41695 | 7939 ft | 258 kts | 332° |
| 2026-04-22 18:52 | 45.09769 | 9.40453 | 7689 ft | 258 kts | 332° |
| 2026-04-22 18:52 | 45.11329 | 9.39218 | 7438 ft | 257 kts | 332° |
| 2026-04-22 18:53 | 45.12888 | 9.37981 | 7186 ft | 256 kts | 332° |
| 2026-04-22 18:53 | 45.14435 | 9.36752 | 6934 ft | 255 kts | 332° |
| 2026-04-22 18:53 | 45.15979 | 9.35525 | 6686 ft | 254 kts | 332° |
| 2026-04-22 18:53 | 45.17519 | 9.34302 | 6432 ft | 253 kts | 332° |
| 2026-04-22 18:54 | 45.19057 | 9.33079 | 6184 ft | 252 kts | 332° |
| 2026-04-22 18:54 | 45.20563 | 9.31880 | 6096 ft | 242 kts | 332° |
| 2026-04-22 18:54 | 45.21996 | 9.30741 | 6075 ft | 232 kts | 331° |
| 2026-04-22 18:54 | 45.23297 | 9.29452 | 6046 ft | 227 kts | 313° |
| 2026-04-22 18:55 | 45.24290 | 9.27734 | 6068 ft | 226 kts | 309° |
| 2026-04-22 18:55 | 45.25293 | 9.26001 | 6079 ft | 229 kts | 310° |
| 2026-04-22 18:55 | 45.26321 | 9.24246 | 6079 ft | 232 kts | 310° |
| 2026-04-22 18:55 | 45.27351 | 9.22491 | 6077 ft | 231 kts | 310° |
| 2026-04-22 18:56 | 45.28033 | 9.21333 | 6081 ft | 230 kts | 310° |
| 2026-04-22 18:56 | 45.29058 | 9.19602 | 6079 ft | 229 kts | 313° |
| 2026-04-22 18:56 | 45.30377 | 9.18393 | 6055 ft | 228 kts | 346° |
| 2026-04-22 18:56 | 45.31941 | 9.18049 | 6083 ft | 228 kts | 356° |
| 2026-04-22 18:57 | 45.33535 | 9.17893 | 6085 ft | 230 kts | 357° |
| 2026-04-22 18:57 | 45.34074 | 9.17847 | 6086 ft | 231 kts | 357° |
| 2026-04-22 18:57 | 45.35091 | 9.17757 | 6088 ft | 232 kts | 357° |
| 2026-04-22 18:57 | 45.36707 | 9.17604 | 6081 ft | 234 kts | 356° |
| 2026-04-22 18:58 | 45.38347 | 9.17438 | 5772 ft | 236 kts | 356° |
| 2026-04-22 18:58 | 45.39982 | 9.17264 | 5497 ft | 235 kts | 356° |
| 2026-04-22 18:58 | 45.41607 | 9.17090 | 5218 ft | 234 kts | 356° |
| 2026-04-22 18:58 | 45.43219 | 9.16915 | 5006 ft | 229 kts | 356° |
| 2026-04-22 18:59 | 45.44780 | 9.16744 | 4895 ft | 222 kts | 356° |
| 2026-04-22 18:59 | 45.46278 | 9.16581 | 4814 ft | 213 kts | 356° |
| 2026-04-22 18:59 | 45.47698 | 9.16425 | 4706 ft | 196 kts | 356° |
| 2026-04-22 18:59 | 45.49014 | 9.16282 | 4628 ft | 185 kts | 356° |
| 2026-04-22 19:00 | 45.50275 | 9.16143 | 4553 ft | 177 kts | 356° |
| 2026-04-22 19:00 | 45.51476 | 9.16011 | 4495 ft | 170 kts | 356° |
| 2026-04-22 19:00 | 45.52665 | 9.15881 | 4433 ft | 172 kts | 356° |
| 2026-04-22 19:00 | 45.53865 | 9.15750 | 4363 ft | 173 kts | 356° |
| 2026-04-22 19:01 | 45.55066 | 9.15712 | 4258 ft | 172 kts | 14° |
| 2026-04-22 19:01 | 45.55905 | 9.16683 | 4116 ft | 150 kts | 65° |
| 2026-04-22 19:01 | 45.56319 | 9.18007 | 3821 ft | 140 kts | 64° |
| 2026-04-22 19:01 | 45.56729 | 9.19198 | 3532 ft | 128 kts | 64° |
| 2026-04-22 19:02 | 45.57129 | 9.20338 | 3450 ft | 131 kts | 63° |
| 2026-04-22 19:02 | 45.57549 | 9.21523 | 3328 ft | 135 kts | 63° |
| 2026-04-22 19:02 | 45.57977 | 9.22714 | 3216 ft | 135 kts | 63° |
| 2026-04-22 19:02 | 45.58401 | 9.23905 | 3112 ft | 135 kts | 66° |
| 2026-04-22 19:03 | 45.58414 | 9.25185 | 2968 ft | 133 kts | 121° |
| 2026-04-22 19:03 | 45.57634 | 9.25825 | 2786 ft | 132 kts | 172° |
| 2026-04-22 19:03 | 45.56719 | 9.26110 | 2570 ft | 134 kts | 163° |
| 2026-04-22 19:03 | 45.55811 | 9.26385 | 2390 ft | 132 kts | 171° |
| 2026-04-22 19:04 | 45.54906 | 9.26541 | 2219 ft | 131 kts | 173° |
| 2026-04-22 19:04 | 45.54001 | 9.26664 | 2051 ft | 131 kts | 174° |
| 2026-04-22 19:04 | 45.53095 | 9.26773 | 1875 ft | 130 kts | 174° |
| 2026-04-22 19:04 | 45.52209 | 9.26872 | 1707 ft | 129 kts | 175° |
| 2026-04-22 19:05 | 45.51317 | 9.26970 | 1527 ft | 128 kts | 175° |
| 2026-04-22 19:05 | 45.50418 | 9.27066 | 1329 ft | 131 kts | 175° |
| 2026-04-22 19:05 | 45.49507 | 9.27162 | 1149 ft | 130 kts | 175° |
| 2026-04-22 19:05 | 45.48609 | 9.27261 | 986 ft | 130 kts | 174° |
| 2026-04-22 19:06 | 45.47708 | 9.27369 | 812 ft | 129 kts | 175° |
| 2026-04-22 19:06 | 45.46819 | 9.27461 | 660 ft | 128 kts | 175° |
| 2026-04-22 19:06 | 45.45919 | 9.27549 | 455 ft | 130 kts | 174° |
| 2026-04-22 19:07 | 45.44356 | 9.27723 | 360 ft | 71 kts | 176° |
| 2026-04-22 19:07 | 45.43948 | 9.27768 | 363 ft | 54 kts | 175° |
| 2026-04-22 19:07 | 45.43631 | 9.27804 | 363 ft | 32 kts | 175° |
| 2026-04-22 19:07 | 45.43457 | 9.27865 | 363 ft | 13 kts | 131° |
| 2026-04-22 19:08 | 45.43443 | 9.27974 | 362 ft | 11 kts | 88° |
| 2026-04-22 19:08 | 45.43471 | 9.28065 | 360 ft | 10 kts | 36° |
| 2026-04-22 19:08 | 45.43536 | 9.28076 | 360 ft | 9 kts | 358° |
| 2026-04-22 19:08 | 45.43602 | 9.28072 | 365 ft | 9 kts | 357° |
| 2026-04-22 19:09 | 45.43665 | 9.28067 | 366 ft | 9 kts | 357° |
| 2026-04-22 19:09 | 45.43728 | 9.28060 | 359 ft | 9 kts | 355° |
| 2026-04-22 19:09 | 45.43796 | 9.28051 | 359 ft | 10 kts | 355° |
| 2026-04-22 19:09 | 45.43873 | 9.28042 | 360 ft | 12 kts | 355° |
| 2026-04-22 19:10 | 45.43962 | 9.28032 | 359 ft | 14 kts | 355° |
| 2026-04-22 19:10 | 45.44062 | 9.28021 | 359 ft | 15 kts | 355° |
| 2026-04-22 19:10 | 45.44171 | 9.28009 | 359 ft | 16 kts | 355° |
| 2026-04-22 19:10 | 45.44289 | 9.27996 | 359 ft | 18 kts | 355° |
| 2026-04-22 19:11 | 45.44416 | 9.27982 | 359 ft | 19 kts | 355° |
| 2026-04-22 19:11 | 45.44550 | 9.27968 | 359 ft | 20 kts | 355° |
| 2026-04-22 19:11 | 45.44691 | 9.27952 | 359 ft | 21 kts | 355° |
| 2026-04-22 19:11 | 45.44838 | 9.27936 | 359 ft | 21 kts | 355° |
| 2026-04-22 19:12 | 45.44983 | 9.27897 | 359 ft | 21 kts | 349° |
| 2026-04-22 19:12 | 45.45126 | 9.27880 | 359 ft | 20 kts | 357° |
| 2026-04-22 19:12 | 45.45265 | 9.27895 | 359 ft | 20 kts | 19° |
| 2026-04-22 19:12 | 45.45398 | 9.27971 | 359 ft | 21 kts | 9° |
| 2026-04-22 19:13 | 45.45539 | 9.27978 | 359 ft | 20 kts | 0° |
| 2026-04-22 19:13 | 45.45677 | 9.27979 | 359 ft | 19 kts | 0° |
| 2026-04-22 19:13 | 45.45808 | 9.27981 | 359 ft | 19 kts | 0° |
| 2026-04-22 19:13 | 45.45897 | 9.28005 | 359 ft | 9 kts | 52° |
| 2026-04-22 19:14 | 45.45952 | 9.28030 | 359 ft | 8 kts | 0° |
| 2026-04-22 19:14 | 45.45973 | 9.28030 | 359 ft | 1 kts | 360° |
| 2026-04-22 19:14 | 45.45974 | 9.28030 | 359 ft | 0 kts | 360° |